This is the latest recevied weather packets stored in our database for station/object AD8PA-13. If no packets are shown the sender has not sent any weather packets the latest 10 day(s).
| Time | Temp. | Humidity | Pressure | Rain* | Wind** | Luminosity | Snow |
|---|---|---|---|---|---|---|---|
| 1777043372 | 23.33° C | 58% | 1008.5 hPa | 0 mm | - | - | - |
| 1777042469 | 24.44° C | 56% | 1008.5 hPa | 0 mm | - | - | - |
| 1777041565 | 23.33° C | 57% | 1008.4 hPa | 0 mm | - | - | - |
| 1777040665 | 23.33° C | 59% | 1008.6 hPa | 0 mm | - | - | - |
| 1777039763 | 22.22° C | 61% | 1008.8 hPa | 0 mm | - | - | - |
| 1777038864 | 22.22° C | 60% | 1008.8 hPa | 0 mm | - | - | - |
| 1777037962 | 21.11° C | 62% | 1009 hPa | 0 mm | - | - | - |
| 1777037058 | 19.44° C | 66% | 1009.4 hPa | 0 mm | - | - | - |
| 1777036156 | 18.33° C | 69% | 1009.3 hPa | 0 mm | - | - | - |
| 1777035253 | 17.78° C | 68% | 1009.5 hPa | 0 mm | - | - | - |
| 1777034350 | 17.78° C | 71% | 1009.5 hPa | 0 mm | - | - | - |
| 1777033450 | 17.22° C | 73% | 1009.7 hPa | 0 mm | - | - | - |
| 1777032546 | 15.56° C | 77% | 1009.6 hPa | 0 mm | - | - | - |
| 1777031643 | 13.89° C | 82% | 1009.6 hPa | 0 mm | - | - | - |
| 1777030741 | 12.78° C | 85% | 1009.7 hPa | 0 mm | - | - | - |
| 1777029841 | 11.67° C | 90% | 1009.8 hPa | 0 mm | - | - | - |
| 1777028937 | 10.56° C | 94% | 1009.9 hPa | 0 mm | - | - | - |
| 1777028033 | 10° C | 95% | 1009.9 hPa | 0 mm | - | - | - |
| 1777027127 | 9.44° C | 94% | 1009.8 hPa | 0 mm | - | - | - |
| 1777026225 | 10° C | 94% | 1010 hPa | 0 mm | - | - | - |
| 1777025321 | 10° C | 93% | 1010.1 hPa | 0 mm | - | - | - |
| 1777024418 | 10.56° C | 92% | 1010.2 hPa | 0 mm | - | - | - |
| 1777023513 | 10.56° C | 91% | 1010.3 hPa | 0 mm | - | - | - |
| 1777022613 | 11.11° C | 90% | 1010.4 hPa | 0 mm | - | - | - |
| 1777021708 | 11.67° C | 88% | 1010.3 hPa | 0 mm | - | - | - |
* Rain latest hour (hover to see other rain measurements)
** Current wind speed in m/s (hover to see current wind gust speed)